createdAt,value
2018-08-19T00:02:21.666Z,3.43
2018-08-19T00:05:05.782Z,3.50
2018-08-19T00:07:35.329Z,3.93
2018-08-19T00:10:05.267Z,4.07
2018-08-19T00:12:40.857Z,3.90
2018-08-19T00:15:10.217Z,3.90
2018-08-19T00:17:39.966Z,3.63
2018-08-19T00:20:12.183Z,3.73
2018-08-19T00:22:42.099Z,3.27
2018-08-19T00:25:16.177Z,3.67
2018-08-19T00:27:45.662Z,3.83
2018-08-19T00:30:15.001Z,3.20
2018-08-19T00:32:44.688Z,2.87
2018-08-19T00:35:13.986Z,3.50
2018-08-19T00:37:43.479Z,3.17
2018-08-19T00:40:12.885Z,3.30
2018-08-19T00:42:43.867Z,3.50
2018-08-19T00:45:13.665Z,3.10
2018-08-19T00:47:42.995Z,4.10
2018-08-19T00:50:12.297Z,3.03
2018-08-19T00:52:41.719Z,3.53
2018-08-19T00:55:11.200Z,2.80
2018-08-19T00:57:43.160Z,3.70
2018-08-19T01:00:12.394Z,3.23
2018-08-19T01:02:41.676Z,3.50
2018-08-19T01:05:11.083Z,2.67
2018-08-19T01:07:40.460Z,3.53
2018-08-19T01:10:09.936Z,3.77
2018-08-19T01:12:39.278Z,3.50
2018-08-19T01:15:12.187Z,2.57
2018-08-19T01:17:41.977Z,3.50
2018-08-19T01:20:12.792Z,3.60
2018-08-19T01:22:43.344Z,3.67
2018-08-19T01:25:14.302Z,3.30
2018-08-19T01:27:43.633Z,3.23
2018-08-19T01:30:16.112Z,2.90
2018-08-19T01:32:45.498Z,3.27
2018-08-19T01:35:15.112Z,3.90
2018-08-19T01:37:44.469Z,2.80
2018-08-19T01:40:17.531Z,3.80
2018-08-19T01:42:47.594Z,3.30
2018-08-19T01:45:16.886Z,3.77
2018-08-19T01:47:46.238Z,3.97
2018-08-19T01:50:16.815Z,3.20
2018-08-19T01:52:48.676Z,3.17
2018-08-19T01:55:18.228Z,3.40
2018-08-19T01:57:48.601Z,3.80
2018-08-19T02:00:18.638Z,3.90
2018-08-19T02:03:01.529Z,3.73
2018-08-19T02:05:30.801Z,3.00
2018-08-19T02:08:02.410Z,3.20
2018-08-19T02:10:32.896Z,3.27
2018-08-19T02:13:02.566Z,3.80
2018-08-19T02:15:32.739Z,3.63
2018-08-19T02:18:03.345Z,3.53
2018-08-19T02:20:34.768Z,3.27
2018-08-19T02:23:06.307Z,3.47
2018-08-19T02:25:40.482Z,3.07
2018-08-19T02:28:10.651Z,3.90
2018-08-19T02:31:03.374Z,3.60
2018-08-19T02:33:34.803Z,5.50
2018-08-19T02:36:06.697Z,4.73
2018-08-19T02:38:37.121Z,3.70
2018-08-19T02:41:06.930Z,3.20
2018-08-19T02:43:46.432Z,2.90
2018-08-19T02:46:15.855Z,2.70
2018-08-19T02:48:48.062Z,2.63
2018-08-19T02:51:20.583Z,2.80
2018-08-19T02:53:51.023Z,2.80
2018-08-19T02:56:20.948Z,3.30
2018-08-19T02:58:50.208Z,3.10
2018-08-19T03:01:19.697Z,3.30
2018-08-19T03:03:49.056Z,2.97
2018-08-19T03:06:18.502Z,2.50
2018-08-19T03:08:52.951Z,3.03
2018-08-19T03:11:22.639Z,2.50
2018-08-19T03:13:51.887Z,2.30
2018-08-19T03:16:21.234Z,2.97
2018-08-19T03:18:52.831Z,2.40
2018-08-19T03:21:23.119Z,2.50
2018-08-19T03:23:53.779Z,2.30
2018-08-19T03:26:23.096Z,2.37
2018-08-19T03:28:52.383Z,3.00
2018-08-19T03:31:24.759Z,2.73
2018-08-19T03:33:54.104Z,3.70
2018-08-19T03:36:23.428Z,2.33
2018-08-19T03:38:53.922Z,2.20
2018-08-19T03:41:23.227Z,3.13
2018-08-19T03:43:58.383Z,2.53
2018-08-19T03:46:29.172Z,3.03
2018-08-19T03:48:58.476Z,2.77
2018-08-19T03:51:27.758Z,3.27
2018-08-19T03:53:57.093Z,3.40
2018-08-19T03:56:26.344Z,2.10
2018-08-19T03:58:59.835Z,3.10
2018-08-19T04:01:41.918Z,2.70
2018-08-19T04:04:12.716Z,3.10
2018-08-19T04:06:42.111Z,3.03
2018-08-19T04:09:11.346Z,2.87
2018-08-19T04:11:40.868Z,2.70
2018-08-19T04:14:26.604Z,2.60
2018-08-19T04:16:58.297Z,3.13
2018-08-19T04:19:28.186Z,3.07
2018-08-19T04:22:00.977Z,1.87
2018-08-19T04:24:30.992Z,2.80
2018-08-19T04:27:04.116Z,3.03
2018-08-19T04:29:34.423Z,2.87
2018-08-19T04:32:04.808Z,2.80
2018-08-19T04:34:34.144Z,2.30
2018-08-19T04:37:03.425Z,2.50
2018-08-19T04:39:32.703Z,2.10
2018-08-19T04:42:02.044Z,2.70
2018-08-19T04:44:31.346Z,2.67
2018-08-19T04:47:01.251Z,2.60
2018-08-19T04:49:30.515Z,3.17
2018-08-19T04:52:00.917Z,3.00
2018-08-19T04:54:30.356Z,3.13
2018-08-19T04:56:59.642Z,2.77
2018-08-19T04:59:28.947Z,2.90
2018-08-19T05:01:58.228Z,2.90
2018-08-19T05:04:27.532Z,2.63
2018-08-19T05:06:56.852Z,2.43
2018-08-19T05:09:26.171Z,2.63
2018-08-19T05:11:55.579Z,2.37
2018-08-19T05:14:24.822Z,2.60
2018-08-19T05:16:54.057Z,2.93
2018-08-19T05:19:23.370Z,2.63
2018-08-19T05:21:54.554Z,2.33
2018-08-19T05:24:23.874Z,2.83
2018-08-19T05:26:57.541Z,2.47
2018-08-19T05:29:26.856Z,3.87
2018-08-19T05:31:58.746Z,4.10
2018-08-19T05:34:37.602Z,3.40
2018-08-19T05:37:06.927Z,4.63
2018-08-19T05:39:36.488Z,3.43
2018-08-19T05:42:11.339Z,4.00
2018-08-19T05:44:41.387Z,3.17
2018-08-19T05:47:13.681Z,3.47
2018-08-19T05:49:44.122Z,3.70
2018-08-19T05:52:20.505Z,3.27
2018-08-19T05:54:53.855Z,3.83
2018-08-19T05:57:23.253Z,3.80
2018-08-19T05:59:53.742Z,3.87
2018-08-19T06:02:30.954Z,3.80
2018-08-19T06:05:00.924Z,3.33
2018-08-19T06:07:30.451Z,3.77
2018-08-19T06:09:59.874Z,3.27
2018-08-19T06:12:29.165Z,3.97
2018-08-19T06:15:00.601Z,4.23
2018-08-19T06:17:29.904Z,3.50
2018-08-19T06:19:59.267Z,4.07
2018-08-19T06:22:42.922Z,4.67
2018-08-19T06:25:15.720Z,5.13
2018-08-19T06:27:47.621Z,3.93
2018-08-19T06:30:17.915Z,4.07
2018-08-19T06:32:48.328Z,4.27
2018-08-19T06:35:18.180Z,3.73
2018-08-19T06:37:48.617Z,3.57
2018-08-19T06:40:22.059Z,3.93
2018-08-19T06:42:51.545Z,3.90
2018-08-19T06:45:21.090Z,4.97
2018-08-19T06:47:51.459Z,4.00
2018-08-19T06:50:29.811Z,6.60
2018-08-19T06:52:59.958Z,4.10
2018-08-19T06:55:29.659Z,3.43
2018-08-19T06:58:00.146Z,4.03
2018-08-19T07:00:31.574Z,3.50
2018-08-19T07:03:04.411Z,3.73
2018-08-19T07:05:34.431Z,3.10
2018-08-19T07:08:03.831Z,4.23
2018-08-19T07:10:38.560Z,3.37
2018-08-19T07:13:16.376Z,2.93
2018-08-19T07:15:45.737Z,4.20
2018-08-19T07:18:16.259Z,3.80
2018-08-19T07:20:45.968Z,3.60
2018-08-19T07:23:15.291Z,4.00
2018-08-19T07:25:45.517Z,3.87
2018-08-19T07:28:16.644Z,3.37
2018-08-19T07:30:46.004Z,4.43
2018-08-19T07:33:15.618Z,3.70
2018-08-19T07:35:44.907Z,4.17
2018-08-19T07:38:14.303Z,3.97
2018-08-19T07:40:43.599Z,3.90
2018-08-19T07:43:12.903Z,7.57
2018-08-19T07:45:42.226Z,5.50
2018-08-19T07:48:11.572Z,5.83
2018-08-19T07:50:41.167Z,4.60
2018-08-19T07:53:10.461Z,3.60
2018-08-19T07:55:39.805Z,3.97
2018-08-19T07:58:09.344Z,3.00
2018-08-19T08:00:40.179Z,3.50
2018-08-19T08:03:09.887Z,3.50
2018-08-19T08:05:44.323Z,3.43
2018-08-19T08:08:13.604Z,3.70
2018-08-19T08:10:43.028Z,3.70
2018-08-19T08:13:13.453Z,3.47
2018-08-19T08:16:00.374Z,4.33
2018-08-19T08:18:29.835Z,3.30
2018-08-19T08:21:04.238Z,3.97
2018-08-19T08:23:33.588Z,3.90
2018-08-19T08:26:02.946Z,3.47
2018-08-19T08:28:32.279Z,3.80
2018-08-19T08:31:01.829Z,4.27
2018-08-19T08:33:31.255Z,3.20
2018-08-19T08:36:00.510Z,4.27
2018-08-19T08:38:29.907Z,4.67
2018-08-19T08:40:59.364Z,6.77
2018-08-19T08:43:28.645Z,4.40
2018-08-19T08:45:59.231Z,4.17
2018-08-19T08:48:34.147Z,3.87
2018-08-19T08:51:03.864Z,4.50
2018-08-19T08:53:43.696Z,3.90
2018-08-19T08:56:13.319Z,3.77
2018-08-19T08:58:43.087Z,5.20
2018-08-19T09:01:12.480Z,6.97
2018-08-19T09:03:41.793Z,4.40
2018-08-19T09:06:18.098Z,5.80
2018-08-19T09:08:47.525Z,4.90
2018-08-19T09:11:18.285Z,5.43
2018-08-19T09:13:47.737Z,5.40
2018-08-19T09:16:17.092Z,5.30
2018-08-19T09:18:46.396Z,4.43
2018-08-19T09:21:16.188Z,4.73
2018-08-19T09:23:45.570Z,5.20
2018-08-19T09:26:15.198Z,4.90
2018-08-19T09:28:44.678Z,5.53
2018-08-19T09:31:14.011Z,4.20
2018-08-19T09:33:43.330Z,3.80
2018-08-19T09:36:12.771Z,5.73
2018-08-19T09:38:42.143Z,5.67
2018-08-19T09:41:11.482Z,4.40
2018-08-19T09:43:41.762Z,4.10
2018-08-19T09:46:11.070Z,4.30
2018-08-19T09:48:40.374Z,3.60
2018-08-19T09:51:13.787Z,4.80
2018-08-19T09:53:43.138Z,5.43
2018-08-19T09:56:12.673Z,4.37
2018-08-19T09:58:46.067Z,7.07
2018-08-19T10:01:19.558Z,10.23
2018-08-19T10:03:48.803Z,7.13
2018-08-19T10:06:18.192Z,4.80
2018-08-19T10:08:47.483Z,4.50
2018-08-19T10:11:16.865Z,4.90
2018-08-19T10:13:48.376Z,7.07
2018-08-19T10:16:17.908Z,5.00
2018-08-19T10:18:47.160Z,5.40
2018-08-19T10:21:18.766Z,4.53
2018-08-19T10:23:48.050Z,4.90
2018-08-19T10:26:17.863Z,4.43
2018-08-19T10:28:47.718Z,4.90
2018-08-19T10:31:18.449Z,4.90
2018-08-19T10:33:50.984Z,5.33
2018-08-19T10:36:20.444Z,5.47
2018-08-19T10:38:49.739Z,5.10
2018-08-19T10:41:19.545Z,4.73
2018-08-19T10:43:48.771Z,4.83
2018-08-19T10:46:18.091Z,4.30
2018-08-19T10:48:47.425Z,5.90
2018-08-19T10:51:16.708Z,6.50
2018-08-19T10:53:46.122Z,6.63
2018-08-19T10:56:15.477Z,4.60
2018-08-19T10:58:49.761Z,4.63
2018-08-19T11:01:19.996Z,5.10
2018-08-19T11:03:49.732Z,5.63
2018-08-19T11:06:19.107Z,6.23
2018-08-19T11:08:55.800Z,5.10
2018-08-19T11:11:25.859Z,6.80
2018-08-19T11:13:55.116Z,32.67
2018-08-19T11:16:24.536Z,37.70
2018-08-19T11:18:54.928Z,38.57
2018-08-19T11:21:29.831Z,17.53
2018-08-19T11:23:59.991Z,24.80
2018-08-19T11:26:29.503Z,29.13
2018-08-19T11:28:59.872Z,17.47
2018-08-19T11:31:34.752Z,21.80
2018-08-19T11:34:07.303Z,7.00
2018-08-19T11:36:42.303Z,7.27
2018-08-19T11:39:13.651Z,8.37
2018-08-19T11:41:43.026Z,8.80
2018-08-19T11:44:14.773Z,10.13
2018-08-19T11:46:44.170Z,7.70
2018-08-19T11:49:15.986Z,5.03
2018-08-19T11:51:50.304Z,10.77
2018-08-19T11:54:20.546Z,5.37
2018-08-19T11:56:57.062Z,4.70
2018-08-19T11:59:33.566Z,9.73
2018-08-19T12:02:03.003Z,4.97
2018-08-19T12:04:32.289Z,4.40
2018-08-19T12:07:01.930Z,7.00
2018-08-19T12:09:31.340Z,4.73
2018-08-19T12:12:00.770Z,5.40
2018-08-19T12:14:33.050Z,4.70
2018-08-19T12:17:03.233Z,6.30
2018-08-19T12:19:33.419Z,6.33
2018-08-19T12:22:04.808Z,4.60
2018-08-19T12:24:37.974Z,5.80
2018-08-19T12:27:09.274Z,5.93
2018-08-19T12:29:39.773Z,4.70
2018-08-19T12:32:26.708Z,4.87
2018-08-19T12:34:58.480Z,6.03
2018-08-19T12:37:29.084Z,5.33
2018-08-19T12:39:59.105Z,4.97
2018-08-19T12:42:29.220Z,6.17
2018-08-19T12:45:02.720Z,5.03
2018-08-19T12:47:32.428Z,4.87
2018-08-19T12:50:03.847Z,5.27
2018-08-19T12:52:34.388Z,5.00
2018-08-19T12:55:07.779Z,3.97
2018-08-19T12:57:38.197Z,5.47
2018-08-19T13:00:19.629Z,5.73
2018-08-19T13:02:50.747Z,6.30
2018-08-19T13:05:20.876Z,4.97
2018-08-19T13:07:50.390Z,4.90
2018-08-19T13:10:19.827Z,5.50
2018-08-19T13:12:56.363Z,4.70
2018-08-19T13:15:28.093Z,5.00
2018-08-19T13:17:57.601Z,5.10
2018-08-19T13:20:27.190Z,5.80
2018-08-19T13:23:02.824Z,6.03
2018-08-19T13:25:32.435Z,5.80
2018-08-19T13:28:01.820Z,5.57
2018-08-19T13:30:31.158Z,5.10
2018-08-19T13:33:00.643Z,4.60
2018-08-19T13:35:30.010Z,4.57
2018-08-19T13:37:59.367Z,4.30
2018-08-19T13:40:28.735Z,4.70
2018-08-19T13:42:57.988Z,4.93
2018-08-19T13:45:28.540Z,4.77
2018-08-19T13:47:57.880Z,4.17
2018-08-19T13:50:27.337Z,5.10
2018-08-19T13:52:57.648Z,3.83
2018-08-19T13:55:27.478Z,5.57
2018-08-19T13:57:56.791Z,5.13
2018-08-19T14:00:30.220Z,5.03
2018-08-19T14:02:59.496Z,5.70
2018-08-19T14:05:29.074Z,4.67
2018-08-19T14:07:58.379Z,3.93
2018-08-19T14:10:27.668Z,4.73
2018-08-19T14:12:56.937Z,4.97
2018-08-19T14:15:26.332Z,4.80
2018-08-19T14:17:55.624Z,4.63
2018-08-19T14:20:24.950Z,3.70
2018-08-19T14:22:54.259Z,4.73
2018-08-19T14:25:23.533Z,4.40
2018-08-19T14:27:52.839Z,3.97
2018-08-19T14:30:22.230Z,4.30
2018-08-19T14:32:51.592Z,5.03
2018-08-19T14:35:20.982Z,4.30
2018-08-19T14:37:50.244Z,5.17
2018-08-19T14:40:19.872Z,4.20
2018-08-19T14:42:49.056Z,4.33
2018-08-19T14:45:18.472Z,4.00
2018-08-19T14:47:47.785Z,4.43
2018-08-19T14:50:19.178Z,4.70
2018-08-19T14:52:48.695Z,5.47
2018-08-19T14:55:18.115Z,5.27
2018-08-19T14:57:47.462Z,3.63
2018-08-19T15:00:17.935Z,4.53
2018-08-19T15:02:47.198Z,4.97
2018-08-19T15:05:20.132Z,4.73
2018-08-19T15:07:49.840Z,4.37
2018-08-19T15:10:21.938Z,4.17
2018-08-19T15:12:51.286Z,4.30
2018-08-19T15:15:20.563Z,4.10
2018-08-19T15:17:57.026Z,4.27
2018-08-19T15:20:33.989Z,5.00
2018-08-19T15:23:14.524Z,4.07
2018-08-19T15:25:44.128Z,3.30
2018-08-19T15:28:13.467Z,4.37
2018-08-19T15:30:43.163Z,3.90
2018-08-19T15:33:13.534Z,3.87
2018-08-19T15:35:43.491Z,3.90
2018-08-19T15:38:13.072Z,4.37
2018-08-19T15:40:47.467Z,4.07
2018-08-19T15:43:16.833Z,4.03
2018-08-19T15:45:46.627Z,3.67
2018-08-19T15:48:16.007Z,3.90
2018-08-19T15:50:45.371Z,3.87
2018-08-19T15:53:14.829Z,3.90
2018-08-19T15:55:44.140Z,4.03
2018-08-19T15:58:13.423Z,4.73
2018-08-19T16:00:42.887Z,3.20
2018-08-19T16:03:13.155Z,4.17
2018-08-19T16:05:42.421Z,3.30
2018-08-19T16:08:11.725Z,3.63
2018-08-19T16:10:41.287Z,3.23
2018-08-19T16:13:11.911Z,3.53
2018-08-19T16:15:41.278Z,3.77
2018-08-19T16:18:10.657Z,3.90
2018-08-19T16:20:40.100Z,3.27
2018-08-19T16:23:09.474Z,3.20
2018-08-19T16:25:38.825Z,3.70
2018-08-19T16:28:08.134Z,3.93
2018-08-19T16:30:37.407Z,3.70
2018-08-19T16:33:06.718Z,3.50
2018-08-19T16:35:36.119Z,4.13
2018-08-19T16:38:05.771Z,3.93
2018-08-19T16:40:35.116Z,3.67
2018-08-19T16:43:04.517Z,3.90
2018-08-19T16:45:33.842Z,3.83
2018-08-19T16:48:03.143Z,4.00
2018-08-19T16:50:32.582Z,4.17
2018-08-19T16:53:01.782Z,3.87
2018-08-19T16:55:42.070Z,5.53
2018-08-19T16:58:11.369Z,4.23
2018-08-19T17:00:40.607Z,4.63
2018-08-19T17:03:25.659Z,4.23
2018-08-19T17:05:55.838Z,4.13
2018-08-19T17:08:25.131Z,4.43
2018-08-19T17:10:54.458Z,3.70
2018-08-19T17:13:23.699Z,5.20
2018-08-19T17:15:53.020Z,4.90
2018-08-19T17:18:22.307Z,4.53
2018-08-19T17:20:52.531Z,4.03
2018-08-19T17:23:23.152Z,4.40
2018-08-19T17:25:52.677Z,4.10
2018-08-19T17:28:25.295Z,3.83
2018-08-19T17:30:55.595Z,4.33
2018-08-19T17:33:27.110Z,4.07
2018-08-19T17:35:56.471Z,4.20
2018-08-19T17:38:29.440Z,4.30
2018-08-19T17:40:58.832Z,4.30
2018-08-19T17:43:33.117Z,3.83
2018-08-19T17:46:10.117Z,3.73
2018-08-19T17:48:40.488Z,4.00
2018-08-19T17:51:21.697Z,4.40
2018-08-19T17:53:51.032Z,3.90
2018-08-19T17:56:20.882Z,3.90
2018-08-19T17:58:52.164Z,3.57
2018-08-19T18:01:21.791Z,5.20
2018-08-19T18:03:51.066Z,3.57
2018-08-19T18:06:20.434Z,3.20
2018-08-19T18:08:51.766Z,4.00
2018-08-19T18:11:21.507Z,4.70
2018-08-19T18:13:50.917Z,4.20
2018-08-19T18:16:20.260Z,3.60
2018-08-19T18:18:49.640Z,4.47
2018-08-19T18:21:19.159Z,4.40
2018-08-19T18:23:49.515Z,4.00
2018-08-19T18:26:19.895Z,3.97
2018-08-19T18:28:49.477Z,4.10
2018-08-19T18:31:21.967Z,3.80
2018-08-19T18:33:59.669Z,5.00
2018-08-19T18:36:31.378Z,4.10
2018-08-19T18:39:01.227Z,5.03
2018-08-19T18:41:36.843Z,4.20
2018-08-19T18:44:08.304Z,4.37
2018-08-19T18:46:37.832Z,5.07
2018-08-19T18:49:11.129Z,4.00
2018-08-19T18:51:41.591Z,4.60
2018-08-19T18:54:17.578Z,4.20
2018-08-19T18:56:47.065Z,5.07
2018-08-19T18:59:19.577Z,5.83
2018-08-19T19:01:48.915Z,3.90
2018-08-19T19:04:18.354Z,5.10
2018-08-19T19:06:47.754Z,3.70
2018-08-19T19:09:17.238Z,4.60
2018-08-19T19:11:47.793Z,4.67
2018-08-19T19:14:19.533Z,4.00
2018-08-19T19:16:54.538Z,4.20
2018-08-19T19:19:24.056Z,4.00
2018-08-19T19:21:59.334Z,4.90
2018-08-19T19:24:33.902Z,5.47
2018-08-19T19:27:03.252Z,5.03
2018-08-19T19:29:33.029Z,4.37
2018-08-19T19:32:11.956Z,4.10
2018-08-19T19:34:41.996Z,3.97
2018-08-19T19:37:11.432Z,4.40
2018-08-19T19:39:40.868Z,6.73
2018-08-19T19:42:11.325Z,5.10
2018-08-19T19:44:40.828Z,5.17
2018-08-19T19:47:10.827Z,5.00
2018-08-19T19:49:46.808Z,5.43
2018-08-19T19:52:16.032Z,4.50
2018-08-19T19:54:45.314Z,4.90
2018-08-19T19:57:14.667Z,4.83
2018-08-19T19:59:44.527Z,4.60
2018-08-19T20:02:29.167Z,4.47
2018-08-19T20:04:58.514Z,4.13
2018-08-19T20:07:28.317Z,3.83
2018-08-19T20:09:57.679Z,3.97
2018-08-19T20:12:28.369Z,4.33
2018-08-19T20:15:00.323Z,3.90
2018-08-19T20:17:29.707Z,4.03
2018-08-19T20:19:59.015Z,4.87
2018-08-19T20:22:28.357Z,4.53
2018-08-19T20:24:57.646Z,3.80
2018-08-19T20:27:26.876Z,4.20
2018-08-19T20:29:56.352Z,4.33
2018-08-19T20:32:25.650Z,3.80
2018-08-19T20:34:54.965Z,3.83
2018-08-19T20:37:25.985Z,4.37
2018-08-19T20:39:55.899Z,4.10
2018-08-19T20:42:25.336Z,4.90
2018-08-19T20:44:54.762Z,4.37
2018-08-19T20:47:24.013Z,4.70
2018-08-19T20:49:53.435Z,4.70
2018-08-19T20:52:32.719Z,5.20
2018-08-19T20:55:02.007Z,4.53
2018-08-19T20:57:31.318Z,4.30
2018-08-19T21:00:00.606Z,4.60
2018-08-19T21:02:29.939Z,4.33
2018-08-19T21:04:59.398Z,5.17
2018-08-19T21:07:28.719Z,4.80
2018-08-19T21:09:58.003Z,4.40
2018-08-19T21:12:27.355Z,5.37
2018-08-19T21:14:56.637Z,4.93
2018-08-19T21:17:39.067Z,4.70
2018-08-19T21:20:08.824Z,4.10
2018-08-19T21:22:38.312Z,4.20
2018-08-19T21:25:07.646Z,4.97
2018-08-19T21:27:39.185Z,4.47
2018-08-19T21:30:08.794Z,4.50
2018-08-19T21:32:38.138Z,5.20
2018-08-19T21:35:09.133Z,4.67
2018-08-19T21:37:38.997Z,4.08
2018-08-19T21:40:09.114Z,5.10
2018-08-19T21:42:49.177Z,6.10
2018-08-19T21:45:20.259Z,4.80
2018-08-19T21:47:49.612Z,4.60
2018-08-19T21:50:18.878Z,3.80
2018-08-19T21:53:02.601Z,4.77
2018-08-19T21:55:52.078Z,5.00
2018-08-19T21:58:21.752Z,4.50
2018-08-19T22:00:58.919Z,4.60
2018-08-19T22:03:33.524Z,5.03
2018-08-19T22:06:09.906Z,4.30
2018-08-19T22:08:39.758Z,3.90
2018-08-19T22:11:09.195Z,3.97
2018-08-19T22:13:38.573Z,4.03
2018-08-19T22:16:08.239Z,3.87
2018-08-19T22:18:37.783Z,3.60
2018-08-19T22:21:16.407Z,4.10
2018-08-19T22:23:47.046Z,4.83
2018-08-19T22:26:19.300Z,4.37
2018-08-19T22:29:02.345Z,4.17
2018-08-19T22:31:31.655Z,3.60
2018-08-19T22:34:00.990Z,4.30
2018-08-19T22:36:30.386Z,4.20
2018-08-19T22:39:00.007Z,4.00
2018-08-19T22:41:31.004Z,3.50
2018-08-19T22:44:00.379Z,4.40
2018-08-19T22:46:29.950Z,4.20
2018-08-19T22:48:59.627Z,4.03
2018-08-19T22:51:32.479Z,3.23
2018-08-19T22:54:01.871Z,4.27
2018-08-19T22:56:31.114Z,3.80
2018-08-19T22:59:00.366Z,3.37
2018-08-19T23:01:35.033Z,4.27
2018-08-19T23:04:04.791Z,3.70
2018-08-19T23:06:34.430Z,3.80
2018-08-19T23:09:05.102Z,3.80
2018-08-19T23:11:39.426Z,3.70
2018-08-19T23:14:19.454Z,4.00
2018-08-19T23:16:48.721Z,3.87
2018-08-19T23:19:20.598Z,3.10
2018-08-19T23:21:50.144Z,3.70
2018-08-19T23:24:19.413Z,4.10
2018-08-19T23:26:48.664Z,3.40
2018-08-19T23:29:17.923Z,3.83
2018-08-19T23:31:47.192Z,3.70
2018-08-19T23:34:16.452Z,3.80
2018-08-19T23:36:45.780Z,3.77
2018-08-19T23:39:15.105Z,3.97
2018-08-19T23:41:44.408Z,3.90
2018-08-19T23:44:13.725Z,3.70
2018-08-19T23:46:42.996Z,4.10
2018-08-19T23:49:12.307Z,4.40
2018-08-19T23:51:41.645Z,3.77
2018-08-19T23:54:11.031Z,3.73
2018-08-19T23:56:40.321Z,3.60
2018-08-19T23:59:09.579Z,3.70
